Sessoms, Georgia
Current Conditions -  °F | °C
As of 4:53 AM on Sunday 23 Nov 2014 (Local Time) from KAMG Reporting Station
Heavy Rain Heavy Rain  
Wind Chill: 60°   Ceiling: 400
Heat Index: 60°   Visibility: 1.7mi
Dew Point: 59°   Wind: 5mph
Humidity: 96%   Direction: 60°ENE
Pressure: 30.04"   Gusts: NA
Location:  31.4253°N, 82.5972°W
Report Text: KAMG 230953Z AUTO 06004KT 1 3/4SM +RA BR BKN004 OVC014 16/15 A3004 RMK AO2 SLP169 P0027 T01560150
Loading
Personal Weather Stations






























Interactive Weather Map New forecast layout! Learn more

10-Day Weather Forecast

Advertisements
Track Severe Weather on mobile